sensor_id;sensor_type;location;lat;lon;timestamp;P1;durP1;ratioP1;P2;durP2;ratioP2
18387;SDS011;9320;50.256;19.026;2023-06-19T00:01:21;12.63;;;11.20;;
18387;SDS011;9320;50.256;19.026;2023-06-19T00:03:49;15.93;;;11.18;;
18387;SDS011;9320;50.256;19.026;2023-06-19T00:06:17;14.75;;;10.95;;
18387;SDS011;9320;50.256;19.026;2023-06-19T00:08:45;14.73;;;11.15;;
18387;SDS011;9320;50.256;19.026;2023-06-19T00:11:13;15.02;;;10.90;;
18387;SDS011;9320;50.256;19.026;2023-06-19T00:13:41;17.25;;;11.77;;
18387;SDS011;9320;50.256;19.026;2023-06-19T00:16:09;14.80;;;11.45;;
18387;SDS011;9320;50.256;19.026;2023-06-19T00:18:39;14.15;;;12.07;;
18387;SDS011;9320;50.256;19.026;2023-06-19T00:21:07;15.93;;;11.90;;
18387;SDS011;9320;50.256;19.026;2023-06-19T00:23:35;19.00;;;12.85;;
18387;SDS011;9320;50.256;19.026;2023-06-19T00:26:04;18.42;;;13.23;;
18387;SDS011;9320;50.256;19.026;2023-06-19T00:28:33;21.52;;;13.40;;
18387;SDS011;9320;50.256;19.026;2023-06-19T00:31:05;25.55;;;14.20;;
18387;SDS011;9320;50.256;19.026;2023-06-19T00:33:33;19.75;;;14.77;;
18387;SDS011;9320;50.256;19.026;2023-06-19T00:36:03;21.80;;;15.13;;
18387;SDS011;9320;50.256;19.026;2023-06-19T00:38:37;21.05;;;15.07;;
18387;SDS011;9320;50.256;19.026;2023-06-19T00:41:05;21.60;;;15.65;;
18387;SDS011;9320;50.256;19.026;2023-06-19T00:43:33;23.20;;;15.13;;
18387;SDS011;9320;50.256;19.026;2023-06-19T00:46:02;21.30;;;14.60;;
18387;SDS011;9320;50.256;19.026;2023-06-19T00:48:31;22.58;;;15.60;;
18387;SDS011;9320;50.256;19.026;2023-06-19T00:51:02;23.73;;;14.85;;
18387;SDS011;9320;50.256;19.026;2023-06-19T00:53:30;20.45;;;14.73;;
18387;SDS011;9320;50.256;19.026;2023-06-19T00:56:00;22.15;;;14.85;;
18387;SDS011;9320;50.256;19.026;2023-06-19T00:58:30;23.08;;;14.52;;
18387;SDS011;9320;50.256;19.026;2023-06-19T01:00:58;18.70;;;13.95;;
18387;SDS011;9320;50.256;19.026;2023-06-19T01:03:34;21.88;;;15.05;;
18387;SDS011;9320;50.256;19.026;2023-06-19T01:06:05;19.92;;;14.27;;
18387;SDS011;9320;50.256;19.026;2023-06-19T01:08:41;20.92;;;14.88;;
18387;SDS011;9320;50.256;19.026;2023-06-19T01:11:17;20.42;;;14.70;;
18387;SDS011;9320;50.256;19.026;2023-06-19T01:13:53;22.77;;;14.15;;
18387;SDS011;9320;50.256;19.026;2023-06-19T01:16:26;22.17;;;14.95;;
18387;SDS011;9320;50.256;19.026;2023-06-19T01:18:56;21.55;;;15.50;;
18387;SDS011;9320;50.256;19.026;2023-06-19T01:21:26;23.20;;;16.30;;
18387;SDS011;9320;50.256;19.026;2023-06-19T01:23:55;24.80;;;15.60;;
18387;SDS011;9320;50.256;19.026;2023-06-19T01:26:23;24.70;;;16.67;;
18387;SDS011;9320;50.256;19.026;2023-06-19T01:28:54;24.58;;;16.80;;
18387;SDS011;9320;50.256;19.026;2023-06-19T01:31:25;22.90;;;17.27;;
18387;SDS011;9320;50.256;19.026;2023-06-19T01:33:58;23.08;;;16.90;;
18387;SDS011;9320;50.256;19.026;2023-06-19T01:36:31;24.80;;;18.08;;
18387;SDS011;9320;50.256;19.026;2023-06-19T01:39:01;24.40;;;16.95;;
18387;SDS011;9320;50.256;19.026;2023-06-19T01:41:30;22.23;;;16.70;;
18387;SDS011;9320;50.256;19.026;2023-06-19T01:43:59;23.25;;;15.80;;
18387;SDS011;9320;50.256;19.026;2023-06-19T01:46:28;24.55;;;17.48;;
18387;SDS011;9320;50.256;19.026;2023-06-19T01:48:56;23.55;;;17.23;;
18387;SDS011;9320;50.256;19.026;2023-06-19T01:51:25;24.42;;;16.38;;
18387;SDS011;9320;50.256;19.026;2023-06-19T01:53:53;21.02;;;16.20;;
18387;SDS011;9320;50.256;19.026;2023-06-19T01:56:23;22.45;;;16.38;;
18387;SDS011;9320;50.256;19.026;2023-06-19T01:58:51;25.40;;;16.38;;
18387;SDS011;9320;50.256;19.026;2023-06-19T02:01:21;23.33;;;16.23;;
18387;SDS011;9320;50.256;19.026;2023-06-19T02:03:49;24.65;;;17.02;;
18387;SDS011;9320;50.256;19.026;2023-06-19T02:06:18;20.02;;;15.88;;
18387;SDS011;9320;50.256;19.026;2023-06-19T02:08:47;23.70;;;17.52;;
18387;SDS011;9320;50.256;19.026;2023-06-19T02:11:15;21.10;;;16.40;;
18387;SDS011;9320;50.256;19.026;2023-06-19T02:13:45;20.58;;;15.40;;
18387;SDS011;9320;50.256;19.026;2023-06-19T02:16:13;19.52;;;15.05;;
18387;SDS011;9320;50.256;19.026;2023-06-19T02:18:41;19.60;;;15.13;;
18387;SDS011;9320;50.256;19.026;2023-06-19T02:21:09;20.52;;;15.18;;
18387;SDS011;9320;50.256;19.026;2023-06-19T02:23:37;21.55;;;15.18;;
18387;SDS011;9320;50.256;19.026;2023-06-19T02:26:05;20.02;;;14.90;;
18387;SDS011;9320;50.256;19.026;2023-06-19T02:28:33;19.73;;;15.15;;
18387;SDS011;9320;50.256;19.026;2023-06-19T02:31:02;21.58;;;15.77;;
18387;SDS011;9320;50.256;19.026;2023-06-19T02:33:30;21.73;;;16.20;;
18387;SDS011;9320;50.256;19.026;2023-06-19T02:35:59;23.98;;;17.13;;
18387;SDS011;9320;50.256;19.026;2023-06-19T02:38:28;20.92;;;16.05;;
18387;SDS011;9320;50.256;19.026;2023-06-19T02:40:56;20.25;;;16.15;;
18387;SDS011;9320;50.256;19.026;2023-06-19T02:43:26;20.60;;;15.90;;
18387;SDS011;9320;50.256;19.026;2023-06-19T02:45:54;20.27;;;16.30;;
18387;SDS011;9320;50.256;19.026;2023-06-19T02:48:24;22.33;;;16.85;;
18387;SDS011;9320;50.256;19.026;2023-06-19T02:50:52;20.95;;;16.85;;
18387;SDS011;9320;50.256;19.026;2023-06-19T02:53:20;22.65;;;17.55;;
18387;SDS011;9320;50.256;19.026;2023-06-19T02:55:48;22.95;;;16.60;;
18387;SDS011;9320;50.256;19.026;2023-06-19T02:58:16;19.70;;;16.70;;
18387;SDS011;9320;50.256;19.026;2023-06-19T03:00:45;23.08;;;17.35;;
18387;SDS011;9320;50.256;19.026;2023-06-19T03:03:13;22.02;;;16.60;;
18387;SDS011;9320;50.256;19.026;2023-06-19T03:05:42;23.05;;;16.30;;
18387;SDS011;9320;50.256;19.026;2023-06-19T03:08:10;20.42;;;16.38;;
18387;SDS011;9320;50.256;19.026;2023-06-19T03:10:38;20.52;;;15.52;;
18387;SDS011;9320;50.256;19.026;2023-06-19T03:13:06;20.38;;;16.33;;
18387;SDS011;9320;50.256;19.026;2023-06-19T03:15:34;23.65;;;16.95;;
18387;SDS011;9320;50.256;19.026;2023-06-19T03:18:02;23.05;;;16.27;;
18387;SDS011;9320;50.256;19.026;2023-06-19T03:20:33;23.17;;;16.35;;
18387;SDS011;9320;50.256;19.026;2023-06-19T03:23:02;21.73;;;16.55;;
18387;SDS011;9320;50.256;19.026;2023-06-19T03:25:30;20.92;;;16.40;;
18387;SDS011;9320;50.256;19.026;2023-06-19T03:28:01;20.63;;;16.05;;
18387;SDS011;9320;50.256;19.026;2023-06-19T03:30:30;21.77;;;15.98;;
18387;SDS011;9320;50.256;19.026;2023-06-19T03:32:58;20.88;;;15.95;;
18387;SDS011;9320;50.256;19.026;2023-06-19T03:35:26;19.25;;;15.55;;
18387;SDS011;9320;50.256;19.026;2023-06-19T03:37:55;19.80;;;15.45;;
18387;SDS011;9320;50.256;19.026;2023-06-19T03:40:24;19.23;;;16.17;;
18387;SDS011;9320;50.256;19.026;2023-06-19T03:42:54;20.17;;;15.65;;
18387;SDS011;9320;50.256;19.026;2023-06-19T03:45:22;21.05;;;16.50;;
18387;SDS011;9320;50.256;19.026;2023-06-19T03:47:50;24.38;;;17.10;;
18387;SDS011;9320;50.256;19.026;2023-06-19T03:50:18;21.20;;;17.70;;
18387;SDS011;9320;50.256;19.026;2023-06-19T03:52:50;25.05;;;17.67;;
18387;SDS011;9320;50.256;19.026;2023-06-19T03:55:18;23.63;;;16.95;;
18387;SDS011;9320;50.256;19.026;2023-06-19T03:57:47;25.23;;;17.33;;
18387;SDS011;9320;50.256;19.026;2023-06-19T04:00:15;26.60;;;17.85;;
18387;SDS011;9320;50.256;19.026;2023-06-19T04:02:44;27.67;;;18.80;;
18387;SDS011;9320;50.256;19.026;2023-06-19T04:05:13;25.98;;;17.98;;
18387;SDS011;9320;50.256;19.026;2023-06-19T04:07:42;27.70;;;19.13;;
18387;SDS011;9320;50.256;19.026;2023-06-19T04:10:10;23.42;;;18.80;;
18387;SDS011;9320;50.256;19.026;2023-06-19T04:12:38;25.90;;;18.73;;
18387;SDS011;9320;50.256;19.026;2023-06-19T04:15:09;25.92;;;19.23;;
18387;SDS011;9320;50.256;19.026;2023-06-19T04:17:37;26.65;;;19.77;;
18387;SDS011;9320;50.256;19.026;2023-06-19T04:20:06;29.50;;;20.02;;
18387;SDS011;9320;50.256;19.026;2023-06-19T04:22:37;26.17;;;19.60;;
18387;SDS011;9320;50.256;19.026;2023-06-19T04:25:06;33.60;;;20.30;;
18387;SDS011;9320;50.256;19.026;2023-06-19T04:27:36;27.27;;;19.48;;
18387;SDS011;9320;50.256;19.026;2023-06-19T04:30:04;25.88;;;20.23;;
18387;SDS011;9320;50.256;19.026;2023-06-19T04:32:35;25.45;;;19.50;;
18387;SDS011;9320;50.256;19.026;2023-06-19T04:35:07;25.85;;;19.35;;
18387;SDS011;9320;50.256;19.026;2023-06-19T04:37:36;29.92;;;19.25;;
18387;SDS011;9320;50.256;19.026;2023-06-19T04:40:05;29.23;;;19.83;;
18387;SDS011;9320;50.256;19.026;2023-06-19T04:42:35;30.02;;;20.58;;
18387;SDS011;9320;50.256;19.026;2023-06-19T04:45:05;31.17;;;19.75;;
18387;SDS011;9320;50.256;19.026;2023-06-19T04:47:37;34.78;;;20.40;;
18387;SDS011;9320;50.256;19.026;2023-06-19T04:50:18;28.77;;;19.90;;
18387;SDS011;9320;50.256;19.026;2023-06-19T04:52:46;26.00;;;19.05;;
18387;SDS011;9320;50.256;19.026;2023-06-19T04:55:17;22.45;;;18.20;;
18387;SDS011;9320;50.256;19.026;2023-06-19T04:57:45;25.17;;;18.65;;
18387;SDS011;9320;50.256;19.026;2023-06-19T05:00:14;27.95;;;19.40;;
18387;SDS011;9320;50.256;19.026;2023-06-19T05:02:47;26.08;;;19.13;;
18387;SDS011;9320;50.256;19.026;2023-06-19T05:05:15;23.30;;;18.08;;
18387;SDS011;9320;50.256;19.026;2023-06-19T05:07:46;25.02;;;19.17;;
18387;SDS011;9320;50.256;19.026;2023-06-19T05:10:15;26.73;;;19.75;;
18387;SDS011;9320;50.256;19.026;2023-06-19T05:12:43;27.33;;;18.85;;
18387;SDS011;9320;50.256;19.026;2023-06-19T05:15:11;25.02;;;18.95;;
18387;SDS011;9320;50.256;19.026;2023-06-19T05:17:39;25.15;;;18.10;;
18387;SDS011;9320;50.256;19.026;2023-06-19T05:20:09;27.52;;;18.80;;
18387;SDS011;9320;50.256;19.026;2023-06-19T05:22:38;23.15;;;19.15;;
18387;SDS011;9320;50.256;19.026;2023-06-19T05:25:07;23.23;;;17.80;;
18387;SDS011;9320;50.256;19.026;2023-06-19T05:27:35;23.85;;;18.25;;
18387;SDS011;9320;50.256;19.026;2023-06-19T05:30:04;21.45;;;17.25;;
18387;SDS011;9320;50.256;19.026;2023-06-19T05:32:33;21.98;;;17.52;;
18387;SDS011;9320;50.256;19.026;2023-06-19T05:35:01;19.98;;;16.83;;
18387;SDS011;9320;50.256;19.026;2023-06-19T05:37:30;19.73;;;16.10;;
18387;SDS011;9320;50.256;19.026;2023-06-19T05:39:58;23.02;;;15.65;;
18387;SDS011;9320;50.256;19.026;2023-06-19T05:42:26;19.95;;;15.98;;
18387;SDS011;9320;50.256;19.026;2023-06-19T05:44:54;19.27;;;15.75;;
18387;SDS011;9320;50.256;19.026;2023-06-19T05:47:22;19.38;;;15.60;;
18387;SDS011;9320;50.256;19.026;2023-06-19T05:49:52;18.02;;;14.20;;
18387;SDS011;9320;50.256;19.026;2023-06-19T05:52:20;17.25;;;13.57;;
18387;SDS011;9320;50.256;19.026;2023-06-19T05:54:49;18.77;;;13.85;;
18387;SDS011;9320;50.256;19.026;2023-06-19T05:57:18;17.50;;;14.05;;
18387;SDS011;9320;50.256;19.026;2023-06-19T05:59:47;17.70;;;13.68;;
18387;SDS011;9320;50.256;19.026;2023-06-19T06:02:16;16.55;;;13.10;;
18387;SDS011;9320;50.256;19.026;2023-06-19T06:04:44;15.60;;;13.20;;
18387;SDS011;9320;50.256;19.026;2023-06-19T06:07:13;15.80;;;13.63;;
18387;SDS011;9320;50.256;19.026;2023-06-19T06:09:41;17.80;;;14.23;;
18387;SDS011;9320;50.256;19.026;2023-06-19T06:12:11;16.42;;;13.85;;
18387;SDS011;9320;50.256;19.026;2023-06-19T06:14:40;15.23;;;13.50;;
18387;SDS011;9320;50.256;19.026;2023-06-19T06:17:08;14.57;;;13.07;;
18387;SDS011;9320;50.256;19.026;2023-06-19T06:19:37;15.88;;;12.68;;
18387;SDS011;9320;50.256;19.026;2023-06-19T06:22:06;15.07;;;12.40;;
18387;SDS011;9320;50.256;19.026;2023-06-19T06:24:34;15.32;;;12.82;;
18387;SDS011;9320;50.256;19.026;2023-06-19T06:27:04;15.57;;;12.43;;
18387;SDS011;9320;50.256;19.026;2023-06-19T06:29:34;15.95;;;12.50;;
18387;SDS011;9320;50.256;19.026;2023-06-19T06:32:03;14.82;;;12.15;;
18387;SDS011;9320;50.256;19.026;2023-06-19T06:34:33;16.30;;;12.80;;
18387;SDS011;9320;50.256;19.026;2023-06-19T06:37:02;14.00;;;12.60;;
18387;SDS011;9320;50.256;19.026;2023-06-19T06:39:32;14.70;;;12.20;;
18387;SDS011;9320;50.256;19.026;2023-06-19T06:42:00;15.63;;;12.57;;
18387;SDS011;9320;50.256;19.026;2023-06-19T06:44:29;14.73;;;12.80;;
18387;SDS011;9320;50.256;19.026;2023-06-19T06:46:58;16.10;;;12.50;;
18387;SDS011;9320;50.256;19.026;2023-06-19T06:49:26;17.42;;;12.90;;
18387;SDS011;9320;50.256;19.026;2023-06-19T06:51:54;17.02;;;12.77;;
18387;SDS011;9320;50.256;19.026;2023-06-19T06:54:23;16.05;;;12.88;;
18387;SDS011;9320;50.256;19.026;2023-06-19T06:56:52;17.42;;;12.68;;
18387;SDS011;9320;50.256;19.026;2023-06-19T06:59:23;13.23;;;11.80;;
18387;SDS011;9320;50.256;19.026;2023-06-19T07:01:51;15.77;;;11.43;;
18387;SDS011;9320;50.256;19.026;2023-06-19T07:04:21;13.75;;;11.75;;
18387;SDS011;9320;50.256;19.026;2023-06-19T07:06:50;13.05;;;11.75;;
18387;SDS011;9320;50.256;19.026;2023-06-19T07:09:18;14.00;;;11.38;;
18387;SDS011;9320;50.256;19.026;2023-06-19T07:11:47;12.95;;;11.07;;
18387;SDS011;9320;50.256;19.026;2023-06-19T07:14:19;13.00;;;11.38;;
18387;SDS011;9320;50.256;19.026;2023-06-19T07:16:48;13.45;;;11.55;;
18387;SDS011;9320;50.256;19.026;2023-06-19T07:19:17;13.05;;;11.15;;
18387;SDS011;9320;50.256;19.026;2023-06-19T07:21:47;12.95;;;11.55;;
18387;SDS011;9320;50.256;19.026;2023-06-19T07:24:18;13.95;;;11.50;;
18387;SDS011;9320;50.256;19.026;2023-06-19T07:26:47;15.82;;;11.35;;
18387;SDS011;9320;50.256;19.026;2023-06-19T07:29:15;12.73;;;10.73;;
18387;SDS011;9320;50.256;19.026;2023-06-19T07:31:43;12.98;;;10.98;;
18387;SDS011;9320;50.256;19.026;2023-06-19T07:34:11;13.18;;;10.85;;
18387;SDS011;9320;50.256;19.026;2023-06-19T07:36:39;16.08;;;11.20;;
18387;SDS011;9320;50.256;19.026;2023-06-19T07:39:10;13.38;;;11.43;;
18387;SDS011;9320;50.256;19.026;2023-06-19T07:41:38;14.57;;;10.95;;
18387;SDS011;9320;50.256;19.026;2023-06-19T07:44:06;13.27;;;10.60;;
18387;SDS011;9320;50.256;19.026;2023-06-19T07:46:34;11.60;;;10.40;;
18387;SDS011;9320;50.256;19.026;2023-06-19T07:49:02;11.63;;;9.35;;
18387;SDS011;9320;50.256;19.026;2023-06-19T07:51:30;11.02;;;8.98;;
18387;SDS011;9320;50.256;19.026;2023-06-19T07:53:58;11.90;;;9.40;;
18387;SDS011;9320;50.256;19.026;2023-06-19T07:56:28;10.15;;;9.05;;
18387;SDS011;9320;50.256;19.026;2023-06-19T07:58:56;10.68;;;8.60;;
18387;SDS011;9320;50.256;19.026;2023-06-19T08:01:24;8.57;;;7.78;;
18387;SDS011;9320;50.256;19.026;2023-06-19T08:03:52;10.45;;;7.72;;
18387;SDS011;9320;50.256;19.026;2023-06-19T08:06:20;8.55;;;7.70;;
18387;SDS011;9320;50.256;19.026;2023-06-19T08:08:49;8.50;;;7.60;;
18387;SDS011;9320;50.256;19.026;2023-06-19T08:11:17;11.68;;;8.10;;
18387;SDS011;9320;50.256;19.026;2023-06-19T08:13:47;16.23;;;7.70;;
18387;SDS011;9320;50.256;19.026;2023-06-19T08:16:15;10.93;;;7.88;;
18387;SDS011;9320;50.256;19.026;2023-06-19T08:18:43;8.07;;;7.38;;
18387;SDS011;9320;50.256;19.026;2023-06-19T08:21:12;13.63;;;7.97;;
18387;SDS011;9320;50.256;19.026;2023-06-19T08:23:41;9.98;;;8.18;;
18387;SDS011;9320;50.256;19.026;2023-06-19T08:26:10;10.45;;;7.75;;
18387;SDS011;9320;50.256;19.026;2023-06-19T08:28:38;9.55;;;7.80;;
18387;SDS011;9320;50.256;19.026;2023-06-19T08:31:09;9.98;;;8.80;;
18387;SDS011;9320;50.256;19.026;2023-06-19T08:33:37;10.38;;;8.40;;
18387;SDS011;9320;50.256;19.026;2023-06-19T08:36:05;8.80;;;7.90;;
18387;SDS011;9320;50.256;19.026;2023-06-19T08:38:33;13.10;;;8.55;;
18387;SDS011;9320;50.256;19.026;2023-06-19T08:41:01;9.93;;;8.68;;
18387;SDS011;9320;50.256;19.026;2023-06-19T08:43:30;12.65;;;8.23;;
18387;SDS011;9320;50.256;19.026;2023-06-19T08:46:01;10.90;;;7.65;;
18387;SDS011;9320;50.256;19.026;2023-06-19T08:48:39;10.88;;;8.25;;
18387;SDS011;9320;50.256;19.026;2023-06-19T08:51:07;8.82;;;7.93;;
18387;SDS011;9320;50.256;19.026;2023-06-19T08:53:44;11.07;;;7.50;;
18387;SDS011;9320;50.256;19.026;2023-06-19T08:56:13;10.93;;;7.80;;
18387;SDS011;9320;50.256;19.026;2023-06-19T08:58:41;15.68;;;7.95;;
18387;SDS011;9320;50.256;19.026;2023-06-19T09:01:09;11.90;;;8.43;;
18387;SDS011;9320;50.256;19.026;2023-06-19T09:03:41;15.23;;;8.63;;
18387;SDS011;9320;50.256;19.026;2023-06-19T09:06:10;14.65;;;8.73;;
18387;SDS011;9320;50.256;19.026;2023-06-19T09:08:39;10.23;;;8.75;;
18387;SDS011;9320;50.256;19.026;2023-06-19T09:11:07;10.05;;;8.73;;
18387;SDS011;9320;50.256;19.026;2023-06-19T09:13:36;10.55;;;8.80;;
18387;SDS011;9320;50.256;19.026;2023-06-19T09:16:05;9.30;;;8.40;;
18387;SDS011;9320;50.256;19.026;2023-06-19T09:18:43;10.32;;;8.10;;
18387;SDS011;9320;50.256;19.026;2023-06-19T09:21:14;11.57;;;8.98;;
18387;SDS011;9320;50.256;19.026;2023-06-19T09:23:44;11.00;;;9.38;;
18387;SDS011;9320;50.256;19.026;2023-06-19T09:26:13;14.65;;;9.10;;
18387;SDS011;9320;50.256;19.026;2023-06-19T09:28:42;9.20;;;8.30;;
18387;SDS011;9320;50.256;19.026;2023-06-19T09:31:11;9.82;;;7.95;;
18387;SDS011;9320;50.256;19.026;2023-06-19T09:33:39;11.00;;;8.60;;
18387;SDS011;9320;50.256;19.026;2023-06-19T09:36:11;8.23;;;7.38;;
18387;SDS011;9320;50.256;19.026;2023-06-19T09:38:39;8.90;;;7.30;;
18387;SDS011;9320;50.256;19.026;2023-06-19T09:41:08;8.07;;;7.25;;
18387;SDS011;9320;50.256;19.026;2023-06-19T09:43:36;9.45;;;7.35;;
18387;SDS011;9320;50.256;19.026;2023-06-19T09:46:06;8.70;;;7.30;;
18387;SDS011;9320;50.256;19.026;2023-06-19T09:48:35;8.50;;;7.40;;
18387;SDS011;9320;50.256;19.026;2023-06-19T09:51:10;8.80;;;7.65;;
18387;SDS011;9320;50.256;19.026;2023-06-19T09:53:44;10.98;;;7.75;;
18387;SDS011;9320;50.256;19.026;2023-06-19T09:56:13;9.80;;;6.80;;
18387;SDS011;9320;50.256;19.026;2023-06-19T09:58:42;8.82;;;7.15;;
18387;SDS011;9320;50.256;19.026;2023-06-19T10:01:12;8.27;;;7.30;;
18387;SDS011;9320;50.256;19.026;2023-06-19T10:03:41;9.77;;;7.78;;
18387;SDS011;9320;50.256;19.026;2023-06-19T10:06:12;9.55;;;7.28;;
18387;SDS011;9320;50.256;19.026;2023-06-19T10:08:44;8.77;;;7.88;;
18387;SDS011;9320;50.256;19.026;2023-06-19T10:11:13;7.53;;;6.82;;
18387;SDS011;9320;50.256;19.026;2023-06-19T10:13:41;10.77;;;7.28;;
18387;SDS011;9320;50.256;19.026;2023-06-19T10:16:19;8.52;;;7.10;;
18387;SDS011;9320;50.256;19.026;2023-06-19T10:18:47;7.72;;;7.00;;
18387;SDS011;9320;50.256;19.026;2023-06-19T10:21:17;9.35;;;6.82;;
18387;SDS011;9320;50.256;19.026;2023-06-19T10:23:52;9.25;;;7.10;;
18387;SDS011;9320;50.256;19.026;2023-06-19T10:26:30;8.23;;;7.22;;
18387;SDS011;9320;50.256;19.026;2023-06-19T10:28:59;7.72;;;6.93;;
18387;SDS011;9320;50.256;19.026;2023-06-19T10:31:27;7.90;;;7.20;;
18387;SDS011;9320;50.256;19.026;2023-06-19T10:33:56;8.15;;;6.78;;
18387;SDS011;9320;50.256;19.026;2023-06-19T10:36:25;10.95;;;7.28;;
18387;SDS011;9320;50.256;19.026;2023-06-19T10:38:53;7.88;;;6.80;;
18387;SDS011;9320;50.256;19.026;2023-06-19T10:41:22;12.25;;;7.97;;
18387;SDS011;9320;50.256;19.026;2023-06-19T10:43:52;10.70;;;7.97;;
18387;SDS011;9320;50.256;19.026;2023-06-19T10:46:21;7.90;;;7.10;;
18387;SDS011;9320;50.256;19.026;2023-06-19T10:48:50;9.00;;;6.78;;
18387;SDS011;9320;50.256;19.026;2023-06-19T10:51:22;9.05;;;7.07;;
18387;SDS011;9320;50.256;19.026;2023-06-19T10:53:54;9.25;;;8.32;;
18387;SDS011;9320;50.256;19.026;2023-06-19T10:56:24;10.05;;;7.75;;
18387;SDS011;9320;50.256;19.026;2023-06-19T10:58:58;8.75;;;7.38;;
18387;SDS011;9320;50.256;19.026;2023-06-19T11:01:31;10.52;;;8.45;;
18387;SDS011;9320;50.256;19.026;2023-06-19T11:04:04;8.77;;;7.90;;
18387;SDS011;9320;50.256;19.026;2023-06-19T11:06:33;11.07;;;7.95;;
18387;SDS011;9320;50.256;19.026;2023-06-19T11:09:04;8.02;;;7.22;;
18387;SDS011;9320;50.256;19.026;2023-06-19T11:11:36;9.63;;;7.57;;
18387;SDS011;9320;50.256;19.026;2023-06-19T11:14:04;9.73;;;8.00;;
18387;SDS011;9320;50.256;19.026;2023-06-19T11:16:33;9.35;;;8.20;;
18387;SDS011;9320;50.256;19.026;2023-06-19T11:19:02;9.35;;;7.70;;
18387;SDS011;9320;50.256;19.026;2023-06-19T11:21:30;8.70;;;7.80;;
18387;SDS011;9320;50.256;19.026;2023-06-19T11:24:05;10.45;;;8.00;;
18387;SDS011;9320;50.256;19.026;2023-06-19T11:26:39;8.70;;;7.80;;
18387;SDS011;9320;50.256;19.026;2023-06-19T11:29:13;8.90;;;7.75;;
18387;SDS011;9320;50.256;19.026;2023-06-19T11:31:42;8.27;;;7.47;;
18387;SDS011;9320;50.256;19.026;2023-06-19T11:34:11;10.18;;;8.20;;
18387;SDS011;9320;50.256;19.026;2023-06-19T11:36:39;8.55;;;7.75;;
18387;SDS011;9320;50.256;19.026;2023-06-19T11:39:11;8.48;;;7.65;;
18387;SDS011;9320;50.256;19.026;2023-06-19T11:41:40;8.48;;;7.55;;
18387;SDS011;9320;50.256;19.026;2023-06-19T11:44:11;8.77;;;7.88;;
18387;SDS011;9320;50.256;19.026;2023-06-19T11:46:39;8.52;;;7.68;;
18387;SDS011;9320;50.256;19.026;2023-06-19T11:49:08;8.93;;;7.13;;
18387;SDS011;9320;50.256;19.026;2023-06-19T11:51:40;9.77;;;8.30;;
18387;SDS011;9320;50.256;19.026;2023-06-19T11:54:08;10.73;;;8.02;;
18387;SDS011;9320;50.256;19.026;2023-06-19T11:56:41;9.23;;;7.72;;
18387;SDS011;9320;50.256;19.026;2023-06-19T11:59:09;9.52;;;8.10;;
18387;SDS011;9320;50.256;19.026;2023-06-19T12:01:37;9.18;;;7.78;;
18387;SDS011;9320;50.256;19.026;2023-06-19T12:04:06;10.52;;;7.25;;
18387;SDS011;9320;50.256;19.026;2023-06-19T12:06:34;8.32;;;7.53;;
18387;SDS011;9320;50.256;19.026;2023-06-19T12:09:03;8.13;;;7.43;;
18387;SDS011;9320;50.256;19.026;2023-06-19T12:11:33;9.70;;;8.38;;
18387;SDS011;9320;50.256;19.026;2023-06-19T12:14:02;9.48;;;7.88;;
18387;SDS011;9320;50.256;19.026;2023-06-19T12:16:30;8.52;;;7.63;;
18387;SDS011;9320;50.256;19.026;2023-06-19T12:18:58;8.70;;;7.40;;
18387;SDS011;9320;50.256;19.026;2023-06-19T12:21:26;7.57;;;6.88;;
18387;SDS011;9320;50.256;19.026;2023-06-19T12:24:03;10.75;;;7.25;;
18387;SDS011;9320;50.256;19.026;2023-06-19T12:26:31;8.38;;;6.75;;
18387;SDS011;9320;50.256;19.026;2023-06-19T12:29:04;7.18;;;6.18;;
18387;SDS011;9320;50.256;19.026;2023-06-19T12:31:33;7.15;;;6.55;;
18387;SDS011;9320;50.256;19.026;2023-06-19T12:34:02;8.30;;;6.55;;
18387;SDS011;9320;50.256;19.026;2023-06-19T12:36:50;7.57;;;6.53;;
18387;SDS011;9320;50.256;19.026;2023-06-19T12:39:18;6.60;;;6.00;;
18387;SDS011;9320;50.256;19.026;2023-06-19T12:41:48;10.05;;;7.03;;
18387;SDS011;9320;50.256;19.026;2023-06-19T12:44:16;7.55;;;6.40;;
18387;SDS011;9320;50.256;19.026;2023-06-19T12:46:44;7.30;;;6.70;;
18387;SDS011;9320;50.256;19.026;2023-06-19T12:49:12;7.43;;;6.72;;
18387;SDS011;9320;50.256;19.026;2023-06-19T12:51:40;10.23;;;7.20;;
18387;SDS011;9320;50.256;19.026;2023-06-19T12:54:08;8.27;;;7.43;;
18387;SDS011;9320;50.256;19.026;2023-06-19T12:56:36;8.43;;;7.13;;
18387;SDS011;9320;50.256;19.026;2023-06-19T12:59:05;7.90;;;7.10;;
18387;SDS011;9320;50.256;19.026;2023-06-19T13:01:33;8.27;;;7.05;;
18387;SDS011;9320;50.256;19.026;2023-06-19T13:04:02;8.00;;;7.20;;
18387;SDS011;9320;50.256;19.026;2023-06-19T13:06:30;7.30;;;6.60;;
18387;SDS011;9320;50.256;19.026;2023-06-19T13:08:58;8.07;;;6.90;;
18387;SDS011;9320;50.256;19.026;2023-06-19T13:11:29;8.57;;;6.72;;
18387;SDS011;9320;50.256;19.026;2023-06-19T13:13:57;7.97;;;7.25;;
18387;SDS011;9320;50.256;19.026;2023-06-19T13:16:27;7.32;;;6.63;;
18387;SDS011;9320;50.256;19.026;2023-06-19T13:19:11;7.75;;;7.05;;
18387;SDS011;9320;50.256;19.026;2023-06-19T13:21:39;7.20;;;6.50;;
18387;SDS011;9320;50.256;19.026;2023-06-19T13:24:08;8.07;;;6.75;;
18387;SDS011;9320;50.256;19.026;2023-06-19T13:26:36;7.22;;;6.53;;
18387;SDS011;9320;50.256;19.026;2023-06-19T13:29:05;9.27;;;6.78;;
18387;SDS011;9320;50.256;19.026;2023-06-19T13:31:34;7.40;;;6.60;;
18387;SDS011;9320;50.256;19.026;2023-06-19T13:34:02;7.63;;;6.85;;
18387;SDS011;9320;50.256;19.026;2023-06-19T13:36:30;7.13;;;6.43;;
18387;SDS011;9320;50.256;19.026;2023-06-19T13:38:58;6.65;;;6.05;;
18387;SDS011;9320;50.256;19.026;2023-06-19T13:41:26;7.15;;;6.55;;
18387;SDS011;9320;50.256;19.026;2023-06-19T13:43:57;7.20;;;6.50;;
18387;SDS011;9320;50.256;19.026;2023-06-19T13:46:26;6.90;;;6.30;;
18387;SDS011;9320;50.256;19.026;2023-06-19T13:48:56;7.22;;;6.53;;
18387;SDS011;9320;50.256;19.026;2023-06-19T13:51:24;7.30;;;6.60;;
18387;SDS011;9320;50.256;19.026;2023-06-19T13:53:53;7.22;;;6.50;;
18387;SDS011;9320;50.256;19.026;2023-06-19T13:56:21;7.10;;;6.40;;
18387;SDS011;9320;50.256;19.026;2023-06-19T13:58:49;7.32;;;6.32;;
18387;SDS011;9320;50.256;19.026;2023-06-19T14:01:18;7.65;;;6.50;;
18387;SDS011;9320;50.256;19.026;2023-06-19T14:03:46;6.38;;;5.88;;
18387;SDS011;9320;50.256;19.026;2023-06-19T14:06:15;7.03;;;6.43;;
18387;SDS011;9320;50.256;19.026;2023-06-19T14:08:43;7.40;;;6.80;;
18387;SDS011;9320;50.256;19.026;2023-06-19T14:11:12;7.43;;;6.70;;
18387;SDS011;9320;50.256;19.026;2023-06-19T14:13:40;7.22;;;6.53;;
18387;SDS011;9320;50.256;19.026;2023-06-19T14:16:08;6.93;;;6.32;;
18387;SDS011;9320;50.256;19.026;2023-06-19T14:18:36;7.65;;;6.85;;
18387;SDS011;9320;50.256;19.026;2023-06-19T14:21:04;7.88;;;7.10;;
18387;SDS011;9320;50.256;19.026;2023-06-19T14:23:33;6.88;;;6.28;;
18387;SDS011;9320;50.256;19.026;2023-06-19T14:26:06;7.13;;;6.43;;
18387;SDS011;9320;50.256;19.026;2023-06-19T14:28:36;7.10;;;6.50;;
18387;SDS011;9320;50.256;19.026;2023-06-19T14:31:05;7.53;;;6.82;;
18387;SDS011;9320;50.256;19.026;2023-06-19T14:33:33;7.57;;;6.88;;
18387;SDS011;9320;50.256;19.026;2023-06-19T14:36:03;7.57;;;6.88;;
18387;SDS011;9320;50.256;19.026;2023-06-19T14:38:31;8.05;;;7.25;;
18387;SDS011;9320;50.256;19.026;2023-06-19T14:41:01;8.32;;;7.25;;
18387;SDS011;9320;50.256;19.026;2023-06-19T14:43:29;7.35;;;6.55;;
18387;SDS011;9320;50.256;19.026;2023-06-19T14:45:59;7.80;;;7.00;;